Time;durP1;ratioP1;P1;durP2;ratioP2;P2;SDS_P1;SDS_P2;PMS_P1;PMS_P2;Temp;Humidity;BMP_temperature;BMP_pressure;BME280_temperature;BME280_humidity;BME280_pressure;Samples;Min_cycle;Max_cycle;Signal;HPM_P1;HPM_P2
2024/02/10 11:04:04;;;;;;;17.3;8.9;;;;;;;18.69;42.08789;909.8318;;;;
2024/02/10 11:07:32;;;;;;;5.4;3.4;;;;;;;18.69;42.69336;909.7848;;;;
2024/02/10 11:09:58;;;;;;;5.3;3;;;;;;;18.78;44.2373;909.7186;;;;
2024/02/10 11:12:23;;;;;;;4.1;2.5;;;;;;;18.81;42.99512;909.6585;;;;
2024/02/10 11:14:48;;;;;;;5.1;2.6;;;;;;;18.81;43.2627;909.7081;;;;
2024/02/10 11:17:14;;;;;;;3;2.1;;;;;;;18.59;42.36914;909.6856;;;;
2024/02/10 11:19:38;;;;;;;2.2;1.6;;;;;;;18.41;42.82813;909.6998;;;;
2024/02/10 11:22:06;;;;;;;3.5;1.6;;;;;;;18.31;44.93359;909.7452;;;;
2024/02/10 11:24:28;;;;;;;2.2;1.5;;;;;;;18.3;42.88672;909.7374;;;;
2024/02/10 11:26:54;;;;;;;12.6;6.2;;;;;;;18.18;39.13379;909.733;;;;
2024/02/10 11:29:20;;;;;;;3;1.4;;;;;;;18.12;39.32617;909.6454;;;;
2024/02/10 11:31:44;;;;;;;1.5;0.9;;;;;;;17.94;39.47363;909.6194;;;;
2024/02/10 11:34:14;;;;;;;1.1;0.8;;;;;;;17.75;41.11621;909.5935;;;;
2024/02/10 11:36:34;;;;;;;0.4;0.4;;;;;;;17.8;40.45898;909.5494;;;;
2024/02/10 11:38:59;;;;;;;0.4;0.4;;;;;;;17.83;40.30957;909.4894;;;;
2024/02/10 11:41:25;;;;;;;0.6;0.5;;;;;;;17.69;40.16992;909.4014;;;;
2024/02/10 11:43:50;;;;;;;0.4;0.4;;;;;;;17.72;39.80176;909.3969;;;;
2024/02/10 11:46:15;;;;;;;0.4;0.4;;;;;;;17.6;41.14746;909.4807;;;;
2024/02/10 11:48:40;;;;;;;0.4;0.4;;;;;;;17.63;38.22754;909.3811;;;;
2024/02/10 11:51:05;;;;;;;0.3;0.3;;;;;;;17.5;38.30859;909.3127;;;;
2024/02/10 11:53:31;;;;;;;0.9;0.4;;;;;;;17.49;39.37402;909.3709;;;;
2024/02/10 11:55:55;;;;;;;1.2;0.4;;;;;;;17.41;38.45117;909.3455;;;;
2024/02/10 11:58:23;;;;;;;0.5;0.4;;;;;;;17.24;37.81055;909.2824;;;;
2024/02/10 12:00:45;;;;;;;0.8;0.6;;;;;;;17.2;38.33984;909.2911;;;;
2024/02/10 12:03:15;;;;;;;1.2;0.6;;;;;;;17.25;40.19824;909.213;;;;
2024/02/10 12:05:38;;;;;;;0.9;0.6;;;;;;;17.28;39.19336;909.2262;;;;
2024/02/10 12:08:00;;;;;;;0.8;0.5;;;;;;;17.2;39.11719;909.1335;;;;
2024/02/10 12:10:26;;;;;;;0.3;0.3;;;;;;;17.25;39.64258;909.1058;;;;
2024/02/10 12:12:51;;;;;;;0.5;0.5;;;;;;;17.27;39.16992;909.0656;;;;
2024/02/10 12:15:16;;;;;;;0.6;0.6;;;;;;;17.34;38.22461;909.009;;;;
2024/02/10 12:17:41;;;;;;;0.5;0.3;;;;;;;17.31;37.88477;908.976;;;;
2024/02/10 12:20:07;;;;;;;1.5;1;;;;;;;17.34;37.74902;908.9672;;;;
2024/02/10 12:22:31;;;;;;;8.3;7.8;;;;;;;17.31;37.13086;908.9026;;;;
2024/02/10 12:24:56;;;;;;;0.9;0.9;;;;;;;17.35;38.33008;908.8768;;;;
2024/02/10 12:27:25;;;;;;;0.5;0.5;;;;;;;17.3;39.91406;908.7408;;;;
2024/02/10 12:29:46;;;;;;;2;0.7;;;;;;;17.23;40.0127;908.7417;;;;
2024/02/10 12:32:12;;;;;;;0.5;0.5;;;;;;;17.26;39.2959;908.7559;;;;
2024/02/10 12:34:36;;;;;;;4.1;1.9;;;;;;;17.24;38.66797;908.7952;;;;
2024/02/10 12:37:01;;;;;;;0.4;0.4;;;;;;;17.15;38.30078;908.8666;;;;
2024/02/10 12:39:27;;;;;;;0.5;0.4;;;;;;;17.12;38.6582;908.8627;;;;
2024/02/10 12:41:52;;;;;;;2.4;0.4;;;;;;;16.98;38.92285;908.7809;;;;
2024/02/10 12:44:18;;;;;;;0.2;0.2;;;;;;;16.96;38.88672;908.726;;;;
2024/02/10 12:46:42;;;;;;;0.1;0.1;;;;;;;17;38.41504;908.6877;;;;
2024/02/10 12:49:09;;;;;;;1.2;0.5;;;;;;;16.91;39.20605;908.752;;;;
2024/02/10 12:51:33;;;;;;;0.2;0.2;;;;;;;16.9;39.61133;908.7147;;;;
2024/02/10 12:53:59;;;;;;;4.4;2.4;;;;;;;16.83;39.30371;908.6348;;;;
2024/02/10 12:56:24;;;;;;;1.6;1;;;;;;;17;38.54199;908.5623;;;;
2024/02/10 12:58:49;;;;;;;0.6;0.6;;;;;;;16.95;39.08301;908.5147;;;;
2024/02/10 13:01:13;;;;;;;1.3;0.7;;;;;;;17.02;38.83398;908.4077;;;;
2024/02/10 13:03:38;;;;;;;1.3;0.4;;;;;;;17.07;37.98047;908.3809;;;;
2024/02/10 13:06:07;;;;;;;0.6;0.6;;;;;;;17.01;38.02148;908.4;;;;
2024/02/10 13:08:28;;;;;;;0.8;0.8;;;;;;;17.03;38.30176;908.3491;;;;
2024/02/10 13:10:53;;;;;;;1.1;0.7;;;;;;;17.13;37.76563;908.3323;;;;
2024/02/10 13:13:19;;;;;;;1.4;0.5;;;;;;;17.05;38.21094;908.3617;;;;
2024/02/10 13:15:45;;;;;;;0.4;0.4;;;;;;;16.87;38.66992;908.3925;;;;
2024/02/10 13:18:09;;;;;;;0.4;0.4;;;;;;;16.81;38.45605;908.3961;;;;
2024/02/10 13:20:34;;;;;;;1.3;0.6;;;;;;;16.82;38.81641;908.3353;;;;
2024/02/10 13:22:59;;;;;;;1.4;1.3;;;;;;;16.81;39.00098;908.3253;;;;
2024/02/10 13:25:24;;;;;;;4.1;1.7;;;;;;;16.87;38.99414;908.2533;;;;
2024/02/10 13:27:50;;;;;;;1.7;1.3;;;;;;;16.85;38.50684;908.3353;;;;
2024/02/10 13:30:17;;;;;;;0.5;0.5;;;;;;;16.86;39.07422;908.3436;;;;
2024/02/10 13:32:39;;;;;;;0.8;0.5;;;;;;;16.72;38.5293;908.3751;;;;
2024/02/10 13:35:05;;;;;;;1;0.7;;;;;;;16.64;39.09082;908.3251;;;;
2024/02/10 14:02:35;;;;;;;1.8;0.7;;;;;;;16.01;39.75;908.1895;;;;
2024/02/10 14:04:11;;;;;;;0.6;0.6;;;;;;;16.02;40.75781;908.186;;;;
2024/02/10 14:06:34;;;;;;;0.7;0.5;;;;;;;15.95;41.0293;908.1489;;;;
2024/02/10 14:08:58;;;;;;;1.2;0.6;;;;;;;15.91;41.10547;908.1594;;;;
2024/02/10 14:11:32;;;;;;;1.4;0.6;;;;;;;15.97;40.35938;908.1351;;;;
2024/02/10 14:13:50;;;;;;;2.2;0.6;;;;;;;15.9;40.13379;908.1326;;;;
2024/02/10 14:16:15;;;;;;;0.7;0.5;;;;;;;15.92;40.12402;908.0849;;;;
2024/02/10 14:18:43;;;;;;;1.1;0.7;;;;;;;15.84;40.49707;908.151;;;;
2024/02/10 14:21:11;;;;;;;1.8;0.9;;;;;;;15.87;40.1543;908.2246;;;;
2024/02/10 14:23:28;;;;;;;0.9;0.9;;;;;;;15.87;40.54688;908.1281;;;;
2024/02/10 14:25:53;;;;;;;1.6;0.6;;;;;;;15.77;40.5957;908.0872;;;;
2024/02/10 14:28:24;;;;;;;1.8;0.6;;;;;;;15.8;40.76074;907.9802;;;;
2024/02/10 14:30:47;;;;;;;0.7;0.7;;;;;;;15.74;40.54688;908.0698;;;;
2024/02/10 14:33:09;;;;;;;0.8;0.7;;;;;;;15.75;40.4209;907.9642;;;;
2024/02/10 14:35:47;;;;;;;1.3;0.7;;;;;;;15.7;40.87793;907.9589;;;;
2024/02/10 14:38:09;;;;;;;2.3;0.7;;;;;;;15.74;40.48926;907.9485;;;;
2024/02/10 14:40:34;;;;;;;1.5;1;;;;;;;15.6;41.80371;907.9572;;;;
2024/02/10 14:42:48;;;;;;;2.8;1.7;;;;;;;15.55;42.34277;907.8527;;;;
2024/02/10 14:45:19;;;;;;;1.9;1.3;;;;;;;15.49;42.3252;907.9281;;;;
2024/02/10 14:47:39;;;;;;;1.7;0.8;;;;;;;15.39;41.42578;907.9264;;;;
2024/02/10 14:50:04;;;;;;;2.3;1.1;;;;;;;15.36;42.47461;907.8095;;;;
2024/02/10 14:53:52;;;;;;;1.7;1;;;;;;;15.48;41.58496;907.7675;;;;
2024/02/10 14:58:24;;;;;;;2;1;;;;;;;15.39;42.31543;907.7397;;;;
2024/02/10 15:00:49;;;;;;;0.8;0.8;;;;;;;15.18;42.82617;907.7201;;;;
2024/02/10 15:03:14;;;;;;;0.9;0.5;;;;;;;15.27;41.75;907.7097;;;;
2024/02/10 15:05:40;;;;;;;0.5;0.5;;;;;;;15.23;42.18359;907.7572;;;;
2024/02/10 15:08:04;;;;;;;0.7;0.4;;;;;;;15.18;42.04102;907.6608;;;;
2024/02/10 15:10:29;;;;;;;0.3;0.3;;;;;;;15.24;41.43457;907.678;;;;
2024/02/10 15:12:55;;;;;;;1.2;0.7;;;;;;;15.21;41.90527;907.6594;;;;
2024/02/10 15:15:19;;;;;;;1.8;0.9;;;;;;;15.15;42.30273;907.6525;;;;
2024/02/10 15:17:45;;;;;;;0.7;0.7;;;;;;;15.11;43.30273;907.6309;;;;
2024/02/10 15:20:10;;;;;;;1.8;0.7;;;;;;;14.94;44.09375;907.5594;;;;
2024/02/10 15:22:35;;;;;;;2.2;0.9;;;;;;;14.86;44.55859;907.5281;;;;
2024/02/10 15:25:03;;;;;;;1;0.9;;;;;;;14.83;44.66016;907.4817;;;;
2024/02/10 15:27:26;;;;;;;1.7;0.6;;;;;;;14.85;44.1084;907.5014;;;;
2024/02/10 15:29:58;;;;;;;1.4;0.8;;;;;;;14.78;44.34375;907.4875;;;;
2024/02/10 15:32:15;;;;;;;1.7;1;;;;;;;14.72;44.12891;907.3471;;;;
2024/02/10 15:34:41;;;;;;;1.9;0.9;;;;;;;14.66;45.02246;907.3669;;;;
2024/02/10 15:37:06;;;;;;;1.3;1;;;;;;;14.6;45.57031;907.386;;;;
2024/02/10 15:39:31;;;;;;;2.9;1.6;;;;;;;14.54;46.08203;907.3228;;;;
2024/02/10 15:41:56;;;;;;;2.1;1.1;;;;;;;14.43;45.66699;907.2986;;;;
2024/02/10 15:44:21;;;;;;;2.8;1.5;;;;;;;14.57;44.44727;907.3608;;;;
2024/02/10 15:46:46;;;;;;;1.4;1.3;;;;;;;14.55;44.82715;907.336;;;;
2024/02/10 15:49:11;;;;;;;2.8;1.6;;;;;;;14.59;44.72656;907.238;;;;
2024/02/10 15:51:37;;;;;;;5.2;2.6;;;;;;;14.48;45.37207;907.2746;;;;
2024/02/10 15:54:01;;;;;;;6.2;2.8;;;;;;;14.42;45.72363;907.2844;;;;
2024/02/10 15:56:27;;;;;;;6.2;2.3;;;;;;;14.34;46.08398;907.183;;;;
2024/02/10 15:58:54;;;;;;;3.1;1.8;;;;;;;14.29;46.28516;907.1769;;;;
2024/02/10 16:01:17;;;;;;;5;1.7;;;;;;;14.25;46.12012;907.1311;;;;
2024/02/10 16:03:43;;;;;;;4.3;1.9;;;;;;;14.22;46.32422;907.0697;;;;
2024/02/10 16:06:07;;;;;;;2.1;1.4;;;;;;;14.13;47.05078;907.035;;;;
2024/02/10 16:08:32;;;;;;;3.3;2;;;;;;;13.99;47.75;907.0719;;;;
2024/02/10 16:10:57;;;;;;;5.3;3;;;;;;;13.99;47.17578;907.086;;;;
2024/02/10 16:13:26;;;;;;;6.3;2.8;;;;;;;13.92;48.21387;907.0533;;;;
2024/02/10 16:15:47;;;;;;;5.4;2.8;;;;;;;13.82;48.24902;907.0345;;;;
2024/02/10 16:18:14;;;;;;;6.6;4.3;;;;;;;13.77;49.05957;907.0011;;;;
2024/02/10 16:20:39;;;;;;;11.1;7.1;;;;;;;13.76;49.13965;906.9578;;;;
2024/02/10 16:23:03;;;;;;;11.2;6.8;;;;;;;13.75;49.50586;906.9589;;;;
2024/02/10 16:25:30;;;;;;;12.6;6.9;;;;;;;13.7;49.98438;907.0222;;;;
2024/02/10 16:27:55;;;;;;;9.7;6.5;;;;;;;13.59;50.53418;907.068;;;;
2024/02/10 16:30:19;;;;;;;10.8;5.4;;;;;;;13.45;51.47168;907.1224;;;;
2024/02/10 16:32:48;;;;;;;18.8;10.7;;;;;;;13.51;51.08887;907.1663;;;;
2024/02/10 16:35:08;;;;;;;7.2;4.4;;;;;;;13.39;51.08691;907.1263;;;;
2024/02/10 16:37:34;;;;;;;6.4;4.1;;;;;;;13.31;51.49023;907.1285;;;;
2024/02/10 16:40:00;;;;;;;18.1;11;;;;;;;13.13;52.88281;907.1217;;;;
2024/02/10 16:42:25;;;;;;;20.7;13.6;;;;;;;13.06;52.81641;907.1155;;;;
2024/02/10 16:44:53;;;;;;;19.8;13.4;;;;;;;13.03;53.52441;907.1744;;;;
2024/02/10 16:47:14;;;;;;;23.4;16.4;;;;;;;13.03;53.20215;907.193;;;;
2024/02/10 16:49:39;;;;;;;22.9;14;;;;;;;13.08;52.61133;907.1863;;;;
2024/02/10 16:52:04;;;;;;;13.9;8.9;;;;;;;13.08;52.62305;907.1961;;;;
2024/02/10 16:54:29;;;;;;;17;10.1;;;;;;;13.09;53.14063;907.1838;;;;
2024/02/10 16:56:55;;;;;;;17.6;9.9;;;;;;;13.03;53.36328;907.1836;;;;
2024/02/10 16:59:20;;;;;;;16.6;10.1;;;;;;;12.94;53.7998;907.1989;;;;
2024/02/10 17:01:45;;;;;;;17.9;10.2;;;;;;;12.83;55.01465;907.1989;;;;
2024/02/10 17:04:13;;;;;;;17.5;10.2;;;;;;;12.7;55.33105;907.1615;;;;
2024/02/10 17:06:35;;;;;;;12.9;8.2;;;;;;;12.63;56.15918;907.2425;;;;
2024/02/10 17:09:02;;;;;;;11.1;7.1;;;;;;;12.62;55.88281;907.1616;;;;
2024/02/10 17:11:26;;;;;;;14.3;6.8;;;;;;;12.58;55.94629;907.228;;;;
2024/02/10 17:13:51;;;;;;;12.6;7.1;;;;;;;12.45;57.04199;907.254;;;;
2024/02/10 17:16:15;;;;;;;12.6;7.1;;;;;;;12.34;57.95703;907.2925;;;;
2024/02/10 17:18:41;;;;;;;11.4;6.7;;;;;;;12.37;57.74219;907.2728;;;;
2024/02/10 17:21:08;;;;;;;12.2;7.1;;;;;;;12.34;57.23438;907.3158;;;;
2024/02/10 17:23:38;;;;;;;18.3;9.3;;;;;;;12.35;56.68555;907.3903;;;;
2024/02/10 17:26:06;;;;;;;17.5;9.3;;;;;;;12.32;57.11621;907.3886;;;;
2024/02/10 17:28:29;;;;;;;14.3;9;;;;;;;12.37;56.80176;907.4005;;;;
2024/02/10 17:30:53;;;;;;;15.4;9.5;;;;;;;12.31;57.67773;907.4255;;;;
2024/02/10 17:33:19;;;;;;;15.8;9.9;;;;;;;12.23;58.58398;907.4797;;;;
2024/02/10 17:35:45;;;;;;;14.2;9.1;;;;;;;12.13;59.25781;907.4066;;;;
2024/02/10 17:38:09;;;;;;;17;11.4;;;;;;;11.95;61.06641;907.483;;;;
2024/02/10 17:40:33;;;;;;;19;11.2;;;;;;;11.96;60.55176;907.4275;;;;
2024/02/10 17:42:58;;;;;;;18.2;11.7;;;;;;;12.08;59.1377;907.4933;;;;
2024/02/10 17:45:23;;;;;;;20.1;12;;;;;;;12.02;59.80469;907.5828;;;;
2024/02/10 17:47:49;;;;;;;20.1;11.9;;;;;;;11.9;60.59082;907.6544;;;;
2024/02/10 17:50:13;;;;;;;19.5;12.1;;;;;;;11.87;60.88477;907.6699;;;;
2024/02/10 17:52:39;;;;;;;20.8;11.6;;;;;;;11.87;60.36816;907.5977;;;;
2024/02/10 17:55:08;;;;;;;20.3;10.9;;;;;;;11.88;59.4873;907.538;;;;
2024/02/10 17:57:29;;;;;;;24.3;12.6;;;;;;;11.95;59.21094;907.535;;;;
2024/02/10 17:59:58;;;;;;;20.1;10.9;;;;;;;11.95;59.37109;907.5589;;;;
2024/02/10 18:02:22;;;;;;;16.3;9.3;;;;;;;11.86;60.1377;907.6147;;;;
2024/02/10 18:04:46;;;;;;;17.7;11.9;;;;;;;11.75;61.98926;907.6088;;;;
2024/02/10 18:07:10;;;;;;;20.3;12.5;;;;;;;11.68;61.97852;907.5479;;;;
2024/02/10 18:09:34;;;;;;;22.9;13.2;;;;;;;11.67;61.55469;907.6138;;;;
2024/02/10 18:12:35;;;;;;;20.1;12.4;;;;;;;11.71;60.82617;907.5715;;;;
2024/02/10 18:14:29;;;;;;;19.7;11.6;;;;;;;11.73;60.97852;907.5325;;;;
2024/02/10 18:16:58;;;;;;;25.2;16;;;;;;;11.71;61.05664;907.5705;;;;
2024/02/10 18:19:19;;;;;;;31.6;20.6;;;;;;;11.72;61.08008;907.6163;;;;
2024/02/10 18:21:45;;;;;;;18.4;12.4;;;;;;;11.65;61.19629;907.5814;;;;
2024/02/10 18:24:09;;;;;;;19;12.9;;;;;;;11.69;60.91504;907.6058;;;;
2024/02/10 18:26:39;;;;;;;18.6;13.1;;;;;;;11.68;61.39453;907.6646;;;;
2024/02/10 18:29:00;;;;;;;25.7;16.7;;;;;;;11.66;61.32227;907.6503;;;;
2024/02/10 18:31:25;;;;;;;19;13.3;;;;;;;11.64;61.19336;907.5859;;;;
2024/02/10 18:33:50;;;;;;;19;10.5;;;;;;;11.64;60.80469;907.5722;;;;
2024/02/10 18:36:15;;;;;;;14.2;9.7;;;;;;;11.6;60.46777;907.5416;;;;
2024/02/10 18:38:40;;;;;;;14.7;9.2;;;;;;;11.51;61.06152;907.5648;;;;
2024/02/10 18:41:05;;;;;;;66.8;43.3;;;;;;;11.51;61.07324;907.5664;;;;
2024/02/10 18:43:30;;;;;;;25.7;15.6;;;;;;;11.43;62.28516;907.5579;;;;
2024/02/10 18:45:55;;;;;;;24.8;17.1;;;;;;;11.5;60.96875;907.5544;;;;
2024/02/10 18:48:21;;;;;;;20.8;12.1;;;;;;;11.49;61.1377;907.5372;;;;
2024/02/10 18:50:46;;;;;;;13.7;9.5;;;;;;;11.49;61.5166;907.5619;;;;
2024/02/10 18:53:12;;;;;;;16;9.1;;;;;;;11.49;61.66504;907.5522;;;;
2024/02/10 18:55:36;;;;;;;13.3;9.1;;;;;;;11.41;62.06543;907.5689;;;;
2024/02/10 18:58:01;;;;;;;16.9;11.5;;;;;;;11.42;62.27246;907.5491;;;;
2024/02/10 19:00:29;;;;;;;17.2;10.7;;;;;;;11.37;62.25488;907.5634;;;;
2024/02/10 19:02:51;;;;;;;13.9;8.7;;;;;;;11.43;62.62988;907.5905;;;;
2024/02/10 19:05:16;;;;;;;15;10;;;;;;;11.31;63.29785;907.5591;;;;
2024/02/10 19:07:41;;;;;;;17.4;10.3;;;;;;;11.31;63.23926;907.5726;;;;
2024/02/10 19:10:08;;;;;;;17.9;9.8;;;;;;;11.33;62.83203;907.601;;;;
2024/02/10 19:12:31;;;;;;;14.7;9.3;;;;;;;11.3;62.91895;907.5895;;;;
2024/02/10 19:14:58;;;;;;;12;8.4;;;;;;;11.32;63.43652;907.5394;;;;
2024/02/10 19:17:23;;;;;;;12.4;8.5;;;;;;;11.31;63.28711;907.5406;;;;
2024/02/10 19:19:47;;;;;;;14;8.1;;;;;;;11.31;63.77734;907.6603;;;;
2024/02/10 19:22:12;;;;;;;13.3;8.4;;;;;;;11.25;63.70215;907.6497;;;;
2024/02/10 19:24:38;;;;;;;15.6;9.6;;;;;;;11.18;65.09668;907.7332;;;;
2024/02/10 19:27:02;;;;;;;16.8;9.7;;;;;;;11.19;65.28223;907.7333;;;;
2024/02/10 19:29:28;;;;;;;17.2;10.3;;;;;;;11.19;64.9043;907.7558;;;;
2024/02/10 19:31:54;;;;;;;15.7;9.4;;;;;;;11.17;64.58008;907.6563;;;;
2024/02/10 19:34:52;;;;;;;14.2;9.1;;;;;;;11.1;65.29102;907.733;;;;
2024/02/10 19:37:18;;;;;;;13.1;8.1;;;;;;;11.12;64.85938;907.7203;;;;
2024/02/10 19:39:43;;;;;;;10.9;8;;;;;;;11.12;65.30566;907.7617;;;;
2024/02/10 19:42:10;;;;;;;17.9;10.5;;;;;;;10.93;67.37012;907.8234;;;;
2024/02/10 19:44:33;;;;;;;19.6;11.8;;;;;;;10.86;67.53027;907.7881;;;;
2024/02/10 19:46:58;;;;;;;19.5;12.7;;;;;;;10.87;67.19824;907.7554;;;;
2024/02/10 19:49:25;;;;;;;20.4;13;;;;;;;10.94;66.18066;907.7481;;;;
2024/02/10 19:51:49;;;;;;;19.8;11.4;;;;;;;10.95;65.85059;907.7569;;;;
2024/02/10 19:54:13;;;;;;;47.7;22.2;;;;;;;10.93;65.97559;907.8234;;;;
2024/02/10 19:56:38;;;;;;;46.9;23.4;;;;;;;10.88;65.8291;907.7589;;;;
2024/02/10 19:59:06;;;;;;;56.3;25.5;;;;;;;10.82;65.8877;907.8035;;;;
2024/02/10 20:01:29;;;;;;;48.8;22.4;;;;;;;10.81;65.99023;907.8705;;;;
2024/02/10 20:03:56;;;;;;;154;69.7;;;;;;;10.85;66.27051;907.9017;;;;
2024/02/10 20:06:25;;;;;;;246.1;136.6;;;;;;;10.93;65.32227;907.829;;;;
2024/02/10 20:08:47;;;;;;;93.6;54;;;;;;;10.89;65.5791;907.8642;;;;
2024/02/10 20:11:12;;;;;;;49.3;28.2;;;;;;;10.95;65.12012;907.8633;;;;
2024/02/10 20:13:38;;;;;;;39.2;23.3;;;;;;;10.94;65.20996;907.964;;;;
2024/02/10 20:16:03;;;;;;;34;19.5;;;;;;;10.92;65.57129;907.9874;;;;
2024/02/10 20:18:29;;;;;;;32;19.7;;;;;;;10.94;65.94141;908.0295;;;;
2024/02/10 20:20:55;;;;;;;26.1;16.3;;;;;;;10.79;66.84277;908.0837;;;;
2024/02/10 20:23:18;;;;;;;27.7;16.5;;;;;;;10.8;66.69629;908.1025;;;;
2024/02/10 20:25:44;;;;;;;26.4;16.8;;;;;;;10.77;66.51074;908.0644;;;;
2024/02/10 20:28:10;;;;;;;29.7;16.7;;;;;;;10.82;65.76172;908.1234;;;;
2024/02/10 20:30:34;;;;;;;28.1;16.5;;;;;;;10.84;65.94922;908.1799;;;;
2024/02/10 20:32:59;;;;;;;27.1;16.9;;;;;;;10.87;65.82715;908.1437;;;;
2024/02/10 20:35:24;;;;;;;29.5;19.1;;;;;;;10.82;66.04883;908.1735;;;;
2024/02/10 20:37:50;;;;;;;41.7;24;;;;;;;10.84;66.23438;908.2196;;;;
2024/02/10 20:40:14;;;;;;;45.3;28.5;;;;;;;10.8;66.66211;908.2375;;;;
2024/02/10 20:42:39;;;;;;;39.5;23.3;;;;;;;10.78;66.68164;908.2322;;;;
2024/02/10 20:45:04;;;;;;;30;17.1;;;;;;;10.77;66.81738;908.269;;;;
2024/02/10 20:47:33;;;;;;;19.7;12.2;;;;;;;10.76;66.79297;908.2303;;;;
2024/02/10 20:49:55;;;;;;;14.2;9.6;;;;;;;10.79;66.44336;908.2564;;;;
2024/02/10 20:52:23;;;;;;;11.9;7.5;;;;;;;10.75;66.19922;908.2801;;;;
2024/02/10 20:54:47;;;;;;;15.6;9;;;;;;;10.77;67.19434;908.3518;;;;
2024/02/10 20:57:10;;;;;;;14.3;9.2;;;;;;;10.74;67.07617;908.35;;;;
2024/02/10 20:59:36;;;;;;;14.8;8.1;;;;;;;10.72;67.09473;908.3986;;;;
2024/02/10 21:02:00;;;;;;;12.6;8.2;;;;;;;10.67;67.56738;908.3901;;;;
2024/02/10 21:04:25;;;;;;;16.5;10.3;;;;;;;10.61;69.39648;908.4496;;;;
2024/02/10 21:06:52;;;;;;;16.9;9.9;;;;;;;10.64;68.56641;908.4773;;;;
2024/02/10 21:09:15;;;;;;;19.2;10.3;;;;;;;10.6;69.64746;908.5261;;;;
2024/02/10 21:11:40;;;;;;;18.1;11.5;;;;;;;10.49;70.63281;908.4945;;;;
2024/02/10 21:14:11;;;;;;;18.6;10.8;;;;;;;10.45;69.40527;908.5795;;;;
2024/02/10 21:16:33;;;;;;;18.8;11.2;;;;;;;10.48;69.22754;908.6404;;;;
2024/02/10 21:18:56;;;;;;;22.9;13.8;;;;;;;10.43;69.14063;908.6869;;;;
2024/02/10 21:21:21;;;;;;;26.8;14.8;;;;;;;10.49;68.66895;908.7261;;;;
2024/02/10 21:23:46;;;;;;;25.9;15.4;;;;;;;10.52;68.35352;908.729;;;;
2024/02/10 21:26:11;;;;;;;29.4;16;;;;;;;10.56;68.41797;908.7711;;;;
2024/02/10 21:28:39;;;;;;;27.3;16.2;;;;;;;10.53;69.21289;908.7745;;;;
2024/02/10 21:31:04;;;;;;;32.4;17.9;;;;;;;10.47;69.12207;908.8041;;;;
2024/02/10 21:33:31;;;;;;;30.3;17.8;;;;;;;10.5;68.74121;908.7932;;;;
2024/02/10 21:35:54;;;;;;;35.5;19.4;;;;;;;10.51;68.9248;908.8222;;;;
2024/02/10 21:38:17;;;;;;;31.8;18.1;;;;;;;10.53;68.52832;908.8318;;;;
2024/02/10 21:40:42;;;;;;;35.9;20.6;;;;;;;10.54;68.44922;908.8108;;;;
2024/02/10 21:43:07;;;;;;;35.5;20.6;;;;;;;10.48;69.49023;908.8563;;;;
2024/02/10 21:45:32;;;;;;;34;20;;;;;;;10.45;69.70215;908.7816;;;;
2024/02/10 21:47:57;;;;;;;37.7;22.3;;;;;;;10.52;69.0293;908.8688;;;;
2024/02/10 21:50:23;;;;;;;31.6;19.9;;;;;;;10.54;68.51855;908.8601;;;;
2024/02/10 21:52:49;;;;;;;32.3;20.9;;;;;;;10.49;68.66895;908.9192;;;;
2024/02/10 21:55:28;;;;;;;24;15.6;;;;;;;10.52;67.97754;908.8848;;;;
2024/02/10 21:57:43;;;;;;;22.2;14.9;;;;;;;10.52;67.76172;908.9341;;;;
2024/02/10 22:00:10;;;;;;;21.6;13.7;;;;;;;10.53;67.90039;908.9289;;;;
2024/02/10 22:02:33;;;;;;;15.8;10.4;;;;;;;10.56;67.80176;908.947;;;;
2024/02/10 22:04:59;;;;;;;18.1;10.4;;;;;;;10.5;67.71191;908.9055;;;;
2024/02/10 22:07:23;;;;;;;17.3;10;;;;;;;10.5;67.5293;908.8745;;;;
2024/02/10 22:09:49;;;;;;;13;8.1;;;;;;;10.51;67.55371;908.8391;;;;
2024/02/10 22:12:13;;;;;;;14.8;8.6;;;;;;;10.52;67.36035;908.9587;;;;
2024/02/10 22:14:38;;;;;;;12.8;8.1;;;;;;;10.5;67.47363;909.0167;;;;
2024/02/10 22:17:03;;;;;;;15.9;9.7;;;;;;;10.53;67.16797;909.0254;;;;
2024/02/10 22:19:29;;;;;;;14.9;9.7;;;;;;;10.52;67.22559;909.0899;;;;
2024/02/10 22:21:54;;;;;;;12.6;7.3;;;;;;;10.6;65.98047;909.0536;;;;
2024/02/10 22:24:20;;;;;;;9.8;5.9;;;;;;;10.59;65.38477;909.0834;;;;
2024/02/10 22:26:44;;;;;;;9.7;6.8;;;;;;;10.63;65.74609;909.0528;;;;
2024/02/10 22:29:09;;;;;;;11.2;7.3;;;;;;;10.63;65.98535;909.0789;;;;
2024/02/10 22:31:36;;;;;;;12;7.4;;;;;;;10.59;66.48145;909.0881;;;;
2024/02/10 22:33:59;;;;;;;15.2;9.3;;;;;;;10.58;67.38379;909.0917;;;;
2024/02/10 22:36:26;;;;;;;18;10.4;;;;;;;10.51;68.86816;909.0798;;;;
2024/02/10 22:38:50;;;;;;;16;10.2;;;;;;;10.53;67.56738;909.0254;;;;
2024/02/10 22:41:14;;;;;;;20;12.1;;;;;;;10.54;67.39941;909.0821;;;;
2024/02/10 22:43:39;;;;;;;37.6;20.5;;;;;;;10.6;67.14453;909.095;;;;
2024/02/10 22:46:08;;;;;;;25.3;14;;;;;;;10.53;68.64258;909.1105;;;;
2024/02/10 22:48:30;;;;;;;20.7;12.2;;;;;;;10.55;68.34863;909.1247;;;;
2024/02/10 22:50:58;;;;;;;17.7;10.4;;;;;;;10.58;67.36035;909.1283;;;;
2024/02/10 22:53:21;;;;;;;16.8;9;;;;;;;10.55;67.02246;909.1678;;;;
2024/02/10 22:55:45;;;;;;;13.7;8.2;;;;;;;10.57;66.91211;909.2059;;;;
2024/02/10 22:58:10;;;;;;;13.5;7.9;;;;;;;10.51;67.58789;909.2176;;;;
2024/02/10 23:00:45;;;;;;;10.8;6.7;;;;;;;10.49;67.21973;909.2104;;;;
2024/02/10 23:03:01;;;;;;;13.8;8.9;;;;;;;10.47;67.46875;909.2723;;;;
2024/02/10 23:05:26;;;;;;;44;20.6;;;;;;;10.57;67.15234;909.3269;;;;
2024/02/10 23:07:50;;;;;;;24.5;12.4;;;;;;;10.53;66.7002;909.3309;;;;
2024/02/10 23:10:16;;;;;;;15.4;8.1;;;;;;;10.55;66.07617;909.3298;;;;
2024/02/10 23:12:44;;;;;;;87.4;45.2;;;;;;;10.55;65.13965;909.2997;;;;
2024/02/10 23:15:43;;;;;;;145;65.8;;;;;;;10.69;63.62988;909.2319;;;;
2024/02/10 23:18:12;;;;;;;102.2;47.4;;;;;;;10.69;63.73242;909.2907;;;;
2024/02/10 23:20:33;;;;;;;63;29.4;;;;;;;10.68;64.14258;909.3326;;;;
2024/02/10 23:23:03;;;;;;;24.4;12.5;;;;;;;10.68;65.21777;909.3459;;;;
2024/02/10 23:25:27;;;;;;;16;9.2;;;;;;;10.74;65.5;909.2811;;;;
2024/02/10 23:27:52;;;;;;;8.1;5.4;;;;;;;10.67;65.87695;909.3974;;;;
2024/02/10 23:30:18;;;;;;;6.7;4.2;;;;;;;10.64;65.57422;909.4168;;;;
2024/02/10 23:32:42;;;;;;;6.2;4.2;;;;;;;10.64;65.58691;909.4063;;;;
2024/02/10 23:35:08;;;;;;;6.6;3.9;;;;;;;10.64;65.2793;909.4055;;;;
2024/02/10 23:37:32;;;;;;;5.1;3.3;;;;;;;10.65;65.22363;909.5221;;;;
2024/02/10 23:39:59;;;;;;;3.8;2.7;;;;;;;10.68;64.87305;909.4822;;;;
2024/02/10 23:42:24;;;;;;;6.6;4.2;;;;;;;10.64;65.24316;909.4925;;;;
2024/02/10 23:44:48;;;;;;;5.3;2.8;;;;;;;10.6;65.1709;909.5022;;;;
2024/02/10 23:47:13;;;;;;;6.1;3.4;;;;;;;10.6;65.5459;909.5271;;;;
2024/02/10 23:49:38;;;;;;;6.5;3.9;;;;;;;10.6;66.29004;909.5237;;;;
2024/02/10 23:52:05;;;;;;;7;4.7;;;;;;;10.57;66.53516;909.4462;;;;
2024/02/10 23:54:28;;;;;;;19.9;10.5;;;;;;;10.55;67.52441;909.4973;;;;
2024/02/10 23:56:54;;;;;;;63.2;33.1;;;;;;;10.57;66.87793;909.4835;;;;
2024/02/10 23:59:19;;;;;;;23.4;12.1;;;;;;;10.56;67.27637;909.4856;;;;
